Time;durP1;ratioP1;P1;durP2;ratioP2;P2;SDS_P1;SDS_P2;PMS_P1;PMS_P2;Temp;Humidity;BMP_temperature;BMP_pressure;BME280_temperature;BME280_humidity;BME280_pressure;Samples;Min_cycle;Max_cycle;Signal;HPM_P1;HPM_P2
2022/10/09 00:02:24;;;;;;;21.50;5.15;;;;;;;9.20;100.00;102505.03;5077601;28;20024;-66
2022/10/09 00:04:50;;;;;;;16.30;5.28;;;;;;;9.14;100.00;102494.19;5088937;28;20028;-66
2022/10/09 00:07:15;;;;;;;12.35;4.55;;;;;;;9.05;100.00;102500.81;5085978;28;20059;-66
2022/10/09 00:09:40;;;;;;;17.42;6.70;;;;;;;9.05;100.00;102500.81;5088760;28;20035;-66
2022/10/09 00:12:06;;;;;;;9.23;5.03;;;;;;;9.07;100.00;102491.25;5088353;28;20074;-66
2022/10/09 00:14:31;;;;;;;10.52;4.57;;;;;;;9.01;100.00;102496.22;5084716;28;20047;-66
2022/10/09 00:16:56;;;;;;;9.68;5.15;;;;;;;8.96;100.00;102494.19;5085934;28;20039;-66
2022/10/09 00:19:22;;;;;;;14.40;4.93;;;;;;;8.96;100.00;102508.22;5071402;28;20020;-67
2022/10/09 00:21:47;;;;;;;10.32;4.90;;;;;;;8.89;100.00;102501.75;5088126;28;20078;-64
2022/10/09 00:24:12;;;;;;;12.70;4.50;;;;;;;8.84;100.00;102500.63;5076769;28;20027;-66
2022/10/09 00:26:38;;;;;;;12.25;5.07;;;;;;;8.82;100.00;102503.97;5087765;28;20028;-65
2022/10/09 00:29:03;;;;;;;10.38;3.97;;;;;;;8.84;100.00;102497.09;5092335;28;20422;-65
2022/10/09 00:31:29;;;;;;;11.45;4.90;;;;;;;8.90;100.00;102500.06;5087673;28;20028;-67
2022/10/09 00:33:55;;;;;;;8.77;5.07;;;;;;;8.85;100.00;102498.91;5082538;28;20024;-65
2022/10/09 00:36:24;;;;;;;15.35;4.63;;;;;;;8.84;100.00;102492.75;5085232;28;20479;-66
2022/10/09 00:38:49;;;;;;;14.77;5.63;;;;;;;8.91;100.00;102496.56;5079416;28;20045;-66
2022/10/09 00:41:22;;;;;;;14.02;5.18;;;;;;;8.95;100.00;102495.91;5088105;28;20096;-66
2022/10/09 00:43:53;;;;;;;10.45;5.03;;;;;;;8.94;100.00;102484.50;5078944;28;20020;-65
2022/10/09 00:46:24;;;;;;;14.15;4.70;;;;;;;8.92;100.00;102485.25;5072798;28;20512;-66
2022/10/09 00:49:00;;;;;;;14.73;5.60;;;;;;;8.91;100.00;102493.94;5072699;28;20028;-66
2022/10/09 00:51:27;;;;;;;13.90;5.25;;;;;;;8.88;100.00;102494.69;5080419;28;20035;-65
2022/10/09 00:53:53;;;;;;;14.73;5.25;;;;;;;8.80;100.00;102487.28;5080809;28;20040;-66
2022/10/09 00:56:18;;;;;;;9.27;5.18;;;;;;;8.77;100.00;102485.41;5074947;28;20036;-67
2022/10/09 00:58:48;;;;;;;11.43;4.90;;;;;;;8.71;100.00;102480.75;5092831;28;20078;-66
2022/10/09 01:01:13;;;;;;;20.38;5.45;;;;;;;8.70;100.00;102485.91;5092345;28;20023;-65
2022/10/09 01:03:39;;;;;;;8.85;4.95;;;;;;;8.72;100.00;102487.81;5092848;28;20094;-65
2022/10/09 01:06:14;;;;;;;11.10;4.88;;;;;;;8.68;100.00;102490.16;5092667;28;20027;-66
2022/10/09 01:09:02;;;;;;;12.15;5.50;;;;;;;8.76;100.00;102489.75;5092269;28;20114;-66
2022/10/09 01:11:39;;;;;;;11.05;6.10;;;;;;;8.70;100.00;102478.03;5084816;28;20048;-66
2022/10/09 01:14:13;;;;;;;7.85;4.30;;;;;;;8.67;100.00;102484.03;5090274;28;20036;-66
2022/10/09 01:16:46;;;;;;;11.82;4.45;;;;;;;8.72;100.00;102485.19;5084716;28;20101;-67
2022/10/09 01:20:10;;;;;;;15.63;5.20;;;;;;;8.68;100.00;102480.59;5082892;28;20357;-66
2022/10/09 01:22:55;;;;;;;10.43;4.80;;;;;;;8.69;100.00;102471.00;5029052;28;20041;-66
2022/10/09 01:25:34;;;;;;;13.82;5.57;;;;;;;8.69;100.00;102476.22;5088682;28;20027;-66
2022/10/09 01:28:01;;;;;;;14.75;4.40;;;;;;;8.61;100.00;102478.47;5076250;28;20028;-66
2022/10/09 01:30:28;;;;;;;9.63;4.50;;;;;;;8.52;100.00;102468.41;5081368;28;20035;-65
2022/10/09 01:32:54;;;;;;;16.00;4.80;;;;;;;8.44;100.00;102462.72;5095261;28;20028;-65
2022/10/09 01:35:21;;;;;;;11.02;4.82;;;;;;;8.44;100.00;102465.34;5091246;28;20031;-66
2022/10/09 01:37:50;;;;;;;16.20;4.50;;;;;;;8.48;100.00;102460.28;5086788;28;20439;-66
2022/10/09 01:40:16;;;;;;;12.88;4.97;;;;;;;8.45;100.00;102461.06;5096087;28;20400;-66
2022/10/09 01:42:42;;;;;;;12.38;4.53;;;;;;;8.41;100.00;102459.03;5096117;28;20363;-65
2022/10/09 01:45:09;;;;;;;12.57;4.43;;;;;;;8.42;100.00;102458.22;5092298;28;20031;-66
2022/10/09 01:47:35;;;;;;;10.40;4.25;;;;;;;8.40;100.00;102452.91;5096032;28;20364;-66
2022/10/09 01:50:04;;;;;;;12.30;4.57;;;;;;;8.36;100.00;102453.56;5095001;28;20149;-66
2022/10/09 01:52:38;;;;;;;13.10;3.85;;;;;;;8.28;100.00;102441.78;5095081;28;20060;-65
2022/10/09 01:55:17;;;;;;;15.65;4.03;;;;;;;8.29;100.00;102443.59;5079717;28;20052;-65
2022/10/09 01:57:51;;;;;;;8.82;3.63;;;;;;;8.23;100.00;102440.63;5075749;28;20035;-66
2022/10/09 02:00:17;;;;;;;7.75;3.83;;;;;;;8.18;100.00;102442.09;5081652;28;20514;-65
2022/10/09 02:02:44;;;;;;;8.90;3.42;;;;;;;8.20;100.00;102444.00;5095435;28;20581;-66
2022/10/09 02:05:14;;;;;;;6.78;3.08;;;;;;;8.26;100.00;102432.91;5095088;28;20012;-66
2022/10/09 02:07:40;;;;;;;9.98;4.00;;;;;;;8.27;100.00;102434.72;5091286;28;20039;-66
2022/10/09 02:10:08;;;;;;;11.23;4.00;;;;;;;8.23;100.00;102433.69;5094989;28;20031;-66
2022/10/09 02:12:39;;;;;;;7.70;3.42;;;;;;;8.14;100.00;102433.19;5094518;28;20353;-66
2022/10/09 02:15:05;;;;;;;8.82;3.38;;;;;;;8.05;100.00;102432.72;5092062;28;20032;-66
2022/10/09 02:17:35;;;;;;;13.07;4.10;;;;;;;8.04;100.00;102437.03;5090780;28;20036;-65
2022/10/09 02:20:27;;;;;;;11.02;3.80;;;;;;;8.10;100.00;102432.13;5077800;28;20486;-66
2022/10/09 02:22:55;;;;;;;9.07;3.83;;;;;;;8.04;100.00;102430.91;5078314;28;20036;-66
2022/10/09 02:25:20;;;;;;;14.82;5.20;;;;;;;8.10;100.00;102426.00;5091715;28;20104;-65
2022/10/09 02:27:47;;;;;;;15.23;3.78;;;;;;;8.06;100.00;102419.69;5094199;28;20479;-65
2022/10/09 02:30:13;;;;;;;8.38;3.53;;;;;;;8.07;100.00;102421.50;5092639;28;20150;-65
2022/10/09 02:32:39;;;;;;;11.15;4.28;;;;;;;8.15;100.00;102413.13;5082045;28;20542;-66
2022/10/09 02:35:05;;;;;;;6.97;3.25;;;;;;;8.06;100.00;102413.56;5083758;28;20032;-65
2022/10/09 02:37:30;;;;;;;6.97;3.28;;;;;;;8.00;100.00;102416.72;5086041;28;20111;-64
2022/10/09 02:39:55;;;;;;;7.47;3.50;;;;;;;7.93;100.00;102414.63;5083660;28;20125;-65
2022/10/09 02:42:21;;;;;;;8.65;3.10;;;;;;;7.94;100.00;102413.81;5091688;28;20496;-65
2022/10/09 02:44:46;;;;;;;8.85;3.63;;;;;;;7.98;100.00;102413.16;5086969;28;20020;-66
2022/10/09 02:47:11;;;;;;;12.70;4.03;;;;;;;7.92;100.00;102412.81;5075343;28;20020;-66
2022/10/09 02:49:37;;;;;;;9.52;3.47;;;;;;;7.90;100.00;102409.22;5087478;28;20034;-66
2022/10/09 02:52:02;;;;;;;9.73;4.10;;;;;;;7.86;100.00;102407.25;5091269;28;20101;-66
2022/10/09 02:54:27;;;;;;;11.77;3.45;;;;;;;7.78;100.00;102406.84;5089473;28;20083;-66
2022/10/09 02:56:53;;;;;;;9.25;3.78;;;;;;;7.85;100.00;102406.34;5075879;28;20344;-66
2022/10/09 02:59:18;;;;;;;6.30;3.47;;;;;;;7.83;100.00;102405.38;5074525;28;20547;-66
2022/10/09 03:01:43;;;;;;;8.77;3.50;;;;;;;7.81;100.00;102395.63;5084033;28;20356;-66
2022/10/09 03:04:09;;;;;;;8.93;3.90;;;;;;;7.84;100.00;102398.41;5080247;28;20016;-66
2022/10/09 03:06:34;;;;;;;8.30;3.78;;;;;;;7.85;100.00;102402.81;5080419;28;20051;-65
2022/10/09 03:08:59;;;;;;;8.68;3.63;;;;;;;7.82;100.00;102395.69;5093151;28;20028;-66
2022/10/09 03:11:25;;;;;;;8.15;3.92;;;;;;;7.83;100.00;102396.63;5090215;28;20294;-66
2022/10/09 03:13:50;;;;;;;10.38;3.28;;;;;;;7.79;100.00;102399.91;5093636;28;20024;-66
2022/10/09 03:16:18;;;;;;;9.02;3.83;;;;;;;7.84;100.00;102399.31;5084430;28;20032;-66
2022/10/09 03:18:45;;;;;;;16.88;3.08;;;;;;;7.81;100.00;102393.91;5074112;28;20028;-65
2022/10/09 03:21:13;;;;;;;6.25;3.25;;;;;;;7.81;100.00;102395.63;5086054;28;20024;-65
2022/10/09 03:23:39;;;;;;;10.60;5.15;;;;;;;7.77;100.00;102394.56;5094499;28;20020;-65
2022/10/09 03:26:08;;;;;;;10.45;3.38;;;;;;;7.76;100.00;102393.66;5089748;28;20024;-66
2022/10/09 03:28:35;;;;;;;5.10;3.40;;;;;;;7.66;100.00;102396.59;5093544;28;20383;-67
2022/10/09 03:31:01;;;;;;;5.65;3.10;;;;;;;7.66;100.00;102391.34;5093589;28;20429;-67
2022/10/09 03:33:26;;;;;;;11.73;4.45;;;;;;;7.79;100.00;102397.28;5092917;28;20032;-66
2022/10/09 03:35:52;;;;;;;7.65;2.88;;;;;;;7.65;100.00;102394.81;5091272;28;20028;-66
2022/10/09 03:38:17;;;;;;;8.98;3.65;;;;;;;7.57;100.00;102394.41;5082185;28;20376;-66
2022/10/09 03:40:42;;;;;;;11.55;3.15;;;;;;;7.56;100.00;102391.69;5082487;28;20086;-66
2022/10/09 03:43:08;;;;;;;9.57;3.53;;;;;;;7.49;100.00;102386.94;5090390;28;20019;-66
2022/10/09 03:45:34;;;;;;;10.25;3.55;;;;;;;7.51;100.00;102394.06;5073923;28;20021;-66
2022/10/09 03:47:59;;;;;;;9.85;3.40;;;;;;;7.51;100.00;102401.91;5092726;28;20020;-66
2022/10/09 03:50:24;;;;;;;5.72;3.03;;;;;;;7.52;100.00;102393.25;5092871;28;20494;-66
2022/10/09 03:52:50;;;;;;;6.85;3.58;;;;;;;7.53;100.00;102388.94;5091160;28;20537;-66
2022/10/09 03:55:15;;;;;;;12.05;3.78;;;;;;;7.46;100.00;102390.31;5078476;28;20041;-66
2022/10/09 03:57:41;;;;;;;10.40;4.35;;;;;;;7.47;100.00;102399.06;5076590;28;20032;-66
2022/10/09 04:00:07;;;;;;;12.00;3.67;;;;;;;7.47;100.00;102388.59;5075503;28;20028;-66
2022/10/09 04:02:33;;;;;;;8.18;3.83;;;;;;;7.50;100.00;102388.75;5081276;28;20020;-66
2022/10/09 04:04:59;;;;;;;11.25;3.70;;;;;;;7.53;100.00;102394.16;5073872;28;20035;-66
2022/10/09 04:07:24;;;;;;;11.25;3.38;;;;;;;7.52;100.00;102392.34;5092537;28;20051;-66
2022/10/09 04:09:49;;;;;;;12.05;3.85;;;;;;;7.46;100.00;102386.78;5090997;28;20032;-66
2022/10/09 04:12:14;;;;;;;11.10;3.60;;;;;;;7.47;100.00;102389.47;5088191;28;20020;-64
2022/10/09 04:14:40;;;;;;;10.32;3.33;;;;;;;7.50;100.00;102399.22;5091958;28;20070;-66
2022/10/09 04:17:06;;;;;;;9.25;3.97;;;;;;;7.48;100.00;102391.28;5088107;28;20046;-65
2022/10/09 04:19:31;;;;;;;6.68;3.75;;;;;;;7.55;100.00;102397.75;5073663;28;20028;-65
2022/10/09 04:21:56;;;;;;;8.75;3.53;;;;;;;7.52;100.00;102388.00;5092731;28;20024;-65
2022/10/09 04:24:22;;;;;;;11.75;3.92;;;;;;;7.49;100.00;102392.16;5092691;28;20321;-65
2022/10/09 04:26:47;;;;;;;8.50;3.42;;;;;;;7.46;100.00;102392.00;5090642;28;20390;-65
2022/10/09 04:29:12;;;;;;;11.02;3.88;;;;;;;7.45;100.00;102390.19;5078817;28;20239;-65
2022/10/09 04:31:38;;;;;;;8.02;3.58;;;;;;;7.45;100.00;102380.66;5088566;28;20486;-65
2022/10/09 04:34:03;;;;;;;11.27;4.82;;;;;;;7.49;100.00;102377.38;5092011;28;20075;-65
2022/10/09 04:36:28;;;;;;;10.07;3.53;;;;;;;7.52;100.00;102376.63;5091088;28;20525;-66
2022/10/09 04:38:54;;;;;;;9.02;4.18;;;;;;;7.48;100.00;102375.56;5090964;28;20502;-65
2022/10/09 04:41:19;;;;;;;9.52;3.67;;;;;;;7.55;100.00;102379.41;5089971;28;20024;-65
2022/10/09 04:43:45;;;;;;;9.98;3.60;;;;;;;7.56;100.00;102379.50;5085814;28;20052;-66
2022/10/09 04:46:12;;;;;;;9.23;4.90;;;;;;;7.56;100.00;102373.38;5089876;28;20031;-66
2022/10/09 04:48:43;;;;;;;10.70;4.00;;;;;;;7.58;100.00;102374.34;5076534;28;20024;-66
2022/10/09 04:51:09;;;;;;;10.65;4.55;;;;;;;7.58;100.00;102366.47;5081525;28;20468;-67
2022/10/09 04:53:36;;;;;;;18.40;5.07;;;;;;;7.63;100.00;102378.09;5072463;28;20112;-65
2022/10/09 04:56:04;;;;;;;9.77;3.80;;;;;;;7.60;100.00;102375.34;5091239;28;20040;-64
2022/10/09 04:58:29;;;;;;;6.95;3.50;;;;;;;7.60;100.00;102370.09;5075115;28;20045;-65
2022/10/09 05:00:55;;;;;;;10.88;3.92;;;;;;;7.60;100.00;102377.94;5079660;28;20070;-65
2022/10/09 05:03:21;;;;;;;9.95;4.28;;;;;;;7.59;100.00;102368.28;5088277;28;20082;-65
2022/10/09 05:05:46;;;;;;;10.50;4.03;;;;;;;7.54;100.00;102365.44;5081091;28;20476;-66
2022/10/09 05:08:12;;;;;;;12.90;5.32;;;;;;;7.57;100.00;102375.19;5084315;28;20040;-66
2022/10/09 05:10:37;;;;;;;10.38;4.30;;;;;;;7.54;100.00;102370.66;5079242;28;20382;-65
2022/10/09 05:13:03;;;;;;;9.45;4.05;;;;;;;7.50;100.00;102368.69;5077771;28;20111;-66
2022/10/09 05:15:28;;;;;;;8.75;4.25;;;;;;;7.49;100.00;102369.50;5078724;28;20020;-65
2022/10/09 05:17:53;;;;;;;19.25;4.28;;;;;;;7.47;100.00;102379.00;5087263;28;20040;-66
2022/10/09 05:20:19;;;;;;;10.38;4.00;;;;;;;7.51;100.00;102380.06;5077285;28;20073;-66
2022/10/09 05:22:45;;;;;;;8.35;3.70;;;;;;;7.47;100.00;102375.47;5091039;28;20111;-66
2022/10/09 05:25:10;;;;;;;7.50;3.67;;;;;;;7.42;100.00;102365.66;5090534;28;20475;-66
2022/10/09 05:27:35;;;;;;;9.38;3.75;;;;;;;7.41;100.00;102371.72;5089572;28;20023;-66
2022/10/09 05:30:01;;;;;;;16.13;4.20;;;;;;;7.47;100.00;102370.25;5089608;28;20335;-66
2022/10/09 05:32:26;;;;;;;13.18;3.97;;;;;;;7.41;100.00;102368.19;5088675;28;20024;-66
2022/10/09 05:34:51;;;;;;;11.90;3.95;;;;;;;7.39;100.00;102368.13;5086232;28;20059;-66
2022/10/09 05:37:17;;;;;;;17.55;4.90;;;;;;;7.38;100.00;102361.06;5075357;28;20035;-66
2022/10/09 05:39:42;;;;;;;9.48;4.40;;;;;;;7.36;100.00;102365.31;5087986;28;20383;-66
2022/10/09 05:42:07;;;;;;;7.95;3.92;;;;;;;7.31;100.00;102372.03;5074521;28;20020;-65
2022/10/09 05:44:32;;;;;;;13.63;4.90;;;;;;;7.34;100.00;102366.03;5088870;28;20030;-65
2022/10/09 05:46:58;;;;;;;12.43;4.65;;;;;;;7.34;100.00;102364.34;5085452;28;20426;-66
2022/10/09 05:49:23;;;;;;;7.93;3.90;;;;;;;7.24;100.00;102367.28;5078439;28;20024;-66
2022/10/09 05:51:49;;;;;;;11.93;4.50;;;;;;;7.25;100.00;102369.97;5090143;28;20028;-66
2022/10/09 05:54:16;;;;;;;10.30;4.78;;;;;;;7.25;100.00;102374.31;5086332;28;20502;-65
2022/10/09 05:56:43;;;;;;;10.77;4.35;;;;;;;7.20;100.00;102370.53;5089433;28;20039;-65
2022/10/09 05:59:14;;;;;;;7.70;4.03;;;;;;;7.20;100.00;102367.91;5078609;28;20040;-65
2022/10/09 06:01:42;;;;;;;9.93;4.47;;;;;;;7.20;100.00;102368.84;5086650;28;20053;-64
2022/10/09 06:04:13;;;;;;;10.25;4.93;;;;;;;7.18;100.00;102370.47;5090941;28;20066;-66
2022/10/09 06:06:39;;;;;;;12.43;4.35;;;;;;;7.25;100.00;102372.59;5091115;28;20473;-66
2022/10/09 06:09:06;;;;;;;16.95;4.55;;;;;;;7.18;100.00;102365.22;5094139;28;20032;-65
2022/10/09 06:11:34;;;;;;;9.85;4.15;;;;;;;7.14;100.00;102370.22;5093957;28;20387;-66
2022/10/09 06:14:03;;;;;;;7.18;4.13;;;;;;;7.19;100.00;102374.88;5089539;28;20031;-66
2022/10/09 06:16:40;;;;;;;9.32;4.57;;;;;;;7.15;100.00;102372.00;5094322;28;20039;-66
2022/10/09 06:19:07;;;;;;;12.05;4.53;;;;;;;7.11;100.00;102362.16;5083049;28;20024;-66
2022/10/09 06:21:32;;;;;;;11.88;4.10;;;;;;;7.09;100.00;102370.88;5086477;28;20028;-66
2022/10/09 06:24:00;;;;;;;10.50;4.80;;;;;;;7.12;100.00;102366.59;5094605;28;20078;-66
2022/10/09 06:26:30;;;;;;;12.43;4.40;;;;;;;7.04;100.00;102369.69;5093177;28;20020;-65
2022/10/09 06:28:57;;;;;;;8.02;3.92;;;;;;;7.02;100.00;102363.47;5081221;28;20423;-66
2022/10/09 06:31:26;;;;;;;13.73;4.18;;;;;;;7.05;100.00;102370.59;5089905;28;20032;-66
2022/10/09 06:33:52;;;;;;;16.65;5.15;;;;;;;7.08;100.00;102366.44;5089065;28;20071;-66
2022/10/09 06:36:28;;;;;;;11.35;4.63;;;;;;;7.23;100.00;102373.31;5091241;28;20057;-66
2022/10/09 06:38:54;;;;;;;9.30;4.47;;;;;;;7.20;100.00;102373.16;5084940;28;20040;-66
2022/10/09 06:41:22;;;;;;;13.23;5.38;;;;;;;7.27;100.00;102375.31;5079607;28;20472;-67
2022/10/09 06:44:00;;;;;;;9.60;4.88;;;;;;;7.34;100.00;102369.59;5081539;28;20028;-67
2022/10/09 06:46:28;;;;;;;14.38;4.72;;;;;;;7.34;100.00;102369.59;5086731;28;20099;-65
2022/10/09 06:48:53;;;;;;;21.38;5.25;;;;;;;7.39;100.00;102375.97;5088599;28;20028;-65
2022/10/09 06:51:20;;;;;;;12.25;4.90;;;;;;;7.45;100.00;102369.25;5085497;28;20107;-65
2022/10/09 06:53:51;;;;;;;16.42;5.55;;;;;;;7.52;100.00;102366.16;5077553;28;20040;-67
2022/10/09 06:56:17;;;;;;;16.00;6.20;;;;;;;7.58;100.00;102376.94;5092975;28;20115;-66
2022/10/09 06:58:46;;;;;;;12.23;5.75;;;;;;;7.62;100.00;102373.69;5081807;28;20063;-65
2022/10/09 07:01:20;;;;;;;17.27;6.30;;;;;;;7.67;100.00;102366.06;5085335;28;20535;-66
2022/10/09 07:03:50;;;;;;;15.43;6.30;;;;;;;7.70;100.00;102368.84;5085537;28;20494;-66
2022/10/09 07:06:19;;;;;;;14.70;6.72;;;;;;;7.73;100.00;102375.16;5079468;28;20444;-66
2022/10/09 07:08:46;;;;;;;16.52;5.65;;;;;;;7.75;100.00;102370.00;5083418;28;20119;-65
2022/10/09 07:11:20;;;;;;;10.63;5.25;;;;;;;7.79;100.00;102363.22;5092544;28;20039;-66
2022/10/09 07:13:47;;;;;;;16.33;6.07;;;;;;;7.81;100.00;102366.78;5075005;28;20481;-67
2022/10/09 07:16:13;;;;;;;16.90;7.18;;;;;;;7.84;100.00;102365.25;5079575;28;20047;-67
2022/10/09 07:18:38;;;;;;;9.38;6.72;;;;;;;7.89;100.00;102373.34;5088341;28;20028;-66
2022/10/09 07:21:06;;;;;;;12.18;6.32;;;;;;;7.93;100.00;102377.91;5090224;28;20034;-66
2022/10/09 07:23:33;;;;;;;13.35;7.53;;;;;;;7.97;100.00;102374.63;5082545;28;20064;-66
2022/10/09 07:25:59;;;;;;;21.30;7.18;;;;;;;8.00;100.00;102372.16;5084250;28;20099;-67
2022/10/09 07:28:26;;;;;;;20.85;8.50;;;;;;;8.02;100.00;102375.78;5075191;28;20475;-66
2022/10/09 07:30:52;;;;;;;16.70;7.82;;;;;;;8.07;100.00;102371.69;5084287;28;20032;-67
2022/10/09 07:33:17;;;;;;;22.52;7.53;;;;;;;8.13;100.00;102370.19;5080226;28;20037;-67
2022/10/09 07:35:51;;;;;;;18.92;8.77;;;;;;;8.16;100.00;102365.09;5082270;28;20028;-67
2022/10/09 07:38:17;;;;;;;17.70;8.93;;;;;;;8.18;100.00;102366.06;5089833;28;20047;-66
2022/10/09 07:40:42;;;;;;;15.43;9.27;;;;;;;8.22;100.00;102376.81;5075295;28;20072;-67
2022/10/09 07:43:07;;;;;;;28.02;9.82;;;;;;;8.29;100.00;102372.78;5091794;28;20028;-65
2022/10/09 07:45:34;;;;;;;16.83;8.85;;;;;;;8.35;100.00;102377.44;5077865;28;20032;-66
2022/10/09 07:48:00;;;;;;;22.85;10.27;;;;;;;8.39;100.00;102369.78;5078035;28;20495;-66
2022/10/09 07:50:25;;;;;;;21.00;10.02;;;;;;;8.46;100.00;102368.41;5083768;28;20451;-66
2022/10/09 07:52:51;;;;;;;20.63;9.95;;;;;;;8.52;100.00;102367.78;5079909;28;20064;-66
2022/10/09 07:55:16;;;;;;;20.05;9.13;;;;;;;8.60;100.00;102376.97;5077504;28;20437;-66
2022/10/09 07:57:41;;;;;;;27.98;10.13;;;;;;;8.69;100.00;102372.16;5088459;28;20463;-66
2022/10/09 08:00:08;;;;;;;16.10;9.30;;;;;;;8.75;100.00;102372.47;5092703;28;20054;-66
2022/10/09 08:02:34;;;;;;;19.10;10.13;;;;;;;8.81;100.00;102371.84;5090291;28;20478;-65
2022/10/09 08:04:59;;;;;;;18.90;9.43;;;;;;;8.89;100.00;102374.84;5073390;28;20095;-65
2022/10/09 08:07:24;;;;;;;13.52;8.35;;;;;;;8.97;100.00;102367.31;5086383;28;20036;-66
2022/10/09 08:09:51;;;;;;;17.83;9.18;;;;;;;9.07;100.00;102361.69;5081429;28;20127;-68
2022/10/09 08:12:16;;;;;;;20.73;10.82;;;;;;;9.11;100.00;102361.94;5078148;28;20235;-66
2022/10/09 08:14:41;;;;;;;18.33;8.77;;;;;;;9.21;100.00;102360.63;5085264;28;20111;-67
2022/10/09 08:17:07;;;;;;;15.63;8.30;;;;;;;9.32;100.00;102360.22;5083155;28;20447;-64
2022/10/09 08:19:32;;;;;;;21.33;9.43;;;;;;;9.39;100.00;102362.31;5076738;28;20028;-66
2022/10/09 08:21:57;;;;;;;14.90;8.30;;;;;;;9.49;100.00;102354.00;5087107;28;20032;-66
2022/10/09 08:24:23;;;;;;;18.77;7.20;;;;;;;9.63;100.00;102357.28;5085881;28;20036;-66
2022/10/09 08:26:48;;;;;;;19.63;8.27;;;;;;;9.71;100.00;102362.84;5081935;28;20532;-65
2022/10/09 08:29:15;;;;;;;12.15;7.43;;;;;;;9.82;100.00;102358.06;5078495;28;20040;-66
2022/10/09 08:31:40;;;;;;;23.42;8.45;;;;;;;9.91;100.00;102356.75;5079502;28;20020;-66
2022/10/09 08:34:06;;;;;;;15.68;8.07;;;;;;;10.04;100.00;102357.31;5085709;28;20054;-67
2022/10/09 08:36:31;;;;;;;11.35;6.38;;;;;;;10.17;100.00;102353.44;5085970;28;20028;-66
2022/10/09 08:38:57;;;;;;;18.65;7.75;;;;;;;10.23;100.00;102356.34;5073169;28;20495;-68
2022/10/09 08:41:38;;;;;;;15.55;6.53;;;;;;;10.35;100.00;102350.72;5086137;28;20028;-68
2022/10/09 08:44:09;;;;;;;15.32;6.80;;;;;;;10.51;100.00;102352.25;5080316;28;20027;-68
2022/10/09 08:47:06;;;;;;;15.85;7.68;;;;;;;10.71;100.00;102345.19;5080672;28;20028;-69
2022/10/09 08:49:40;;;;;;;21.83;6.55;;;;;;;10.92;100.00;102342.47;5078796;28;20039;-68
2022/10/09 08:52:21;;;;;;;12.13;6.00;;;;;;;11.13;100.00;102345.94;5080073;28;20047;-68
2022/10/09 08:54:46;;;;;;;17.33;6.90;;;;;;;11.34;100.00;102345.00;5076148;28;20041;-68
2022/10/09 08:57:14;;;;;;;10.88;5.68;;;;;;;11.64;100.00;102333.78;5081008;28;20028;-67
2022/10/09 08:59:40;;;;;;;16.70;5.10;;;;;;;11.86;100.00;102342.47;5080907;28;20032;-67
2022/10/09 09:02:24;;;;;;;8.57;4.10;;;;;;;12.09;100.00;102336.28;5075173;28;20024;-67
2022/10/09 09:05:20;;;;;;;13.93;4.80;;;;;;;12.32;100.00;102330.88;5076266;28;20097;-66
2022/10/09 09:07:50;;;;;;;8.77;3.88;;;;;;;12.50;100.00;102340.25;5073915;28;20388;-66
2022/10/09 09:10:24;;;;;;;10.60;3.90;;;;;;;12.66;100.00;102331.97;5090589;28;20499;-66
2022/10/09 09:13:22;;;;;;;7.90;3.58;;;;;;;12.83;100.00;102327.22;5085937;28;20028;-66
2022/10/09 09:16:15;;;;;;;14.65;3.83;;;;;;;13.07;100.00;102319.16;5061158;28;20048;-66
2022/10/09 09:19:18;;;;;;;11.57;4.07;;;;;;;13.20;100.00;102315.13;5088802;28;20516;-67
2022/10/09 09:21:50;;;;;;;7.18;3.50;;;;;;;13.35;100.00;102319.97;5092644;28;20024;-67
2022/10/09 09:24:18;;;;;;;12.88;3.67;;;;;;;13.52;100.00;102309.00;5082053;28;20027;-67
2022/10/09 09:26:49;;;;;;;9.93;3.72;;;;;;;13.58;100.00;102311.81;5086734;28;20035;-67
2022/10/09 09:29:19;;;;;;;10.98;3.20;;;;;;;13.71;100.00;102306.00;5091281;28;20028;-67
2022/10/09 09:31:45;;;;;;;7.40;4.03;;;;;;;13.88;100.00;102305.59;5085521;28;20032;-66
2022/10/09 09:34:19;;;;;;;13.15;3.58;;;;;;;14.09;100.00;102306.13;5078062;28;20027;-69
2022/10/09 09:36:58;;;;;;;13.40;3.63;;;;;;;14.18;100.00;102305.47;5077289;28;20438;-68
2022/10/09 09:39:26;;;;;;;6.95;2.92;;;;;;;14.30;100.00;102304.88;5083765;28;20024;-68
2022/10/09 09:41:54;;;;;;;9.27;3.45;;;;;;;14.37;100.00;102301.53;5080912;28;20032;-68
2022/10/09 09:44:20;;;;;;;7.90;3.30;;;;;;;14.48;100.00;102294.72;5095302;28;20028;-68
2022/10/09 09:46:48;;;;;;;17.30;3.53;;;;;;;14.63;100.00;102298.63;5085597;28;20035;-67
2022/10/09 09:49:26;;;;;;;8.13;2.75;;;;;;;14.80;100.00;102297.25;5083461;28;20073;-68
2022/10/09 09:51:53;;;;;;;8.20;3.03;;;;;;;14.92;100.00;102290.44;5083555;28;20032;-67
2022/10/09 09:54:27;;;;;;;11.93;2.97;;;;;;;15.08;100.00;102286.38;5082438;28;20081;-67
2022/10/09 09:56:58;;;;;;;6.85;2.60;;;;;;;15.20;100.00;102281.31;5077670;28;20474;-67
2022/10/09 09:59:37;;;;;;;11.55;3.00;;;;;;;15.33;99.87;102274.53;5087393;28;20028;-68
2022/10/09 10:02:10;;;;;;;9.43;3.00;;;;;;;15.48;100.00;102282.75;5086287;28;20028;-66
2022/10/09 10:04:35;;;;;;;9.05;2.15;;;;;;;15.61;97.65;102272.38;5082826;28;20567;-68
2022/10/09 10:07:01;;;;;;;13.57;2.83;;;;;;;15.79;91.39;102271.81;5079619;28;20031;-67
2022/10/09 10:09:27;;;;;;;7.30;2.88;;;;;;;15.76;84.10;102262.06;5087464;28;20070;-67
2022/10/09 10:12:03;;;;;;;8.32;2.08;;;;;;;15.75;82.10;102268.22;5083397;28;20032;-67
2022/10/09 10:14:30;;;;;;;8.02;1.90;;;;;;;15.99;87.53;102258.94;5081737;28;20029;-66
2022/10/09 10:16:57;;;;;;;9.45;1.92;;;;;;;16.11;83.87;102264.44;5084138;28;20032;-67
2022/10/09 10:19:27;;;;;;;9.43;2.20;;;;;;;16.41;82.95;102252.50;5091329;28;20509;-66
2022/10/09 10:22:01;;;;;;;6.97;2.00;;;;;;;16.49;76.15;102258.84;5081515;28;20020;-66
2022/10/09 10:24:44;;;;;;;3.17;1.65;;;;;;;16.73;74.62;102257.41;5085934;28;20118;-66
2022/10/09 10:27:23;;;;;;;11.02;2.28;;;;;;;16.87;71.99;102252.25;5086993;28;20021;-66
2022/10/09 10:29:54;;;;;;;9.02;1.85;;;;;;;17.21;72.92;102251.84;5086926;28;20020;-67
2022/10/09 10:32:32;;;;;;;9.48;2.13;;;;;;;17.49;67.91;102253.91;5081514;28;20103;-66
2022/10/09 10:35:26;;;;;;;7.30;1.67;;;;;;;17.51;61.08;102244.19;5089761;28;20052;-67
2022/10/09 10:38:05;;;;;;;9.30;2.00;;;;;;;17.51;59.72;102237.97;5083133;28;20055;-66
2022/10/09 10:40:45;;;;;;;6.75;1.58;;;;;;;17.91;68.50;102246.31;5086728;28;20036;-67
2022/10/09 10:43:34;;;;;;;9.60;2.20;;;;;;;18.30;65.02;102238.66;5083927;28;20405;-67
2022/10/09 10:46:17;;;;;;;9.02;1.55;;;;;;;18.59;59.43;102233.50;5081761;28;20028;-67
2022/10/09 10:48:47;;;;;;;;;;;;;;;18.88;58.70;102227.44;5084035;28;20028;-67
2022/10/09 10:51:24;;;;;;;7.25;1.60;;;;;;;19.08;57.59;102226.66;5085177;28;19969;-67
2022/10/09 10:54:21;;;;;;;15.63;1.85;;;;;;;19.20;55.91;102229.34;5080617;28;20035;-67
2022/10/09 10:56:48;;;;;;;8.80;1.85;;;;;;;19.44;52.74;102212.50;5060485;28;20048;-66
2022/10/09 10:59:26;;;;;;;8.68;1.60;;;;;;;19.50;52.62;102214.28;5085328;28;20025;-68
2022/10/09 11:02:20;;;;;;;8.13;1.60;;;;;;;19.70;51.92;102203.63;5076424;28;20468;-67
2022/10/09 11:04:54;;;;;;;4.13;1.42;;;;;;;19.81;49.55;102199.22;5078104;28;20048;-68
2022/10/09 11:07:46;;;;;;;4.07;1.40;;;;;;;20.10;49.41;102192.94;5091140;28;20438;-68
2022/10/09 11:10:20;;;;;;;6.53;1.60;;;;;;;19.94;47.55;102188.50;5089619;28;20035;-67
2022/10/09 11:12:56;;;;;;;6.18;1.85;;;;;;;20.01;48.62;102182.28;5082679;28;20024;-69
2022/10/09 11:15:40;;;;;;;6.57;1.65;;;;;;;19.87;47.73;102175.19;5076003;28;20124;-68
2022/10/09 11:18:22;;;;;;;5.70;1.63;;;;;;;20.18;49.41;102175.13;5082268;28;20028;-67
2022/10/09 11:21:11;;;;;;;10.05;1.58;;;;;;;20.36;46.66;102170.59;5087916;28;20028;-68
2022/10/09 11:23:42;;;;;;;3.85;1.48;;;;;;;20.46;45.48;102164.34;5087920;28;20032;-69
2022/10/09 11:26:30;;;;;;;6.38;1.90;;;;;;;20.28;46.59;102164.41;5085209;28;20028;-67
2022/10/09 11:28:59;;;;;;;8.48;1.50;;;;;;;20.59;46.17;102164.31;5079145;28;20364;-68
2022/10/09 11:31:33;;;;;;;5.38;1.45;;;;;;;20.44;43.37;102151.88;5079661;28;20024;-68